sensor_id;sensor_type;location;lat;lon;timestamp;P1;durP1;ratioP1;P2;durP2;ratioP2
58196;SDS011;43999;51.660;5.616;2023-06-10T00:00:02;12.70;;;11.60;;
58196;SDS011;43999;51.660;5.616;2023-06-10T00:02:38;11.55;;;10.65;;
58196;SDS011;43999;51.660;5.616;2023-06-10T00:05:06;10.80;;;9.73;;
58196;SDS011;43999;51.660;5.616;2023-06-10T00:07:35;10.73;;;9.75;;
58196;SDS011;43999;51.660;5.616;2023-06-10T00:10:07;11.25;;;10.27;;
58196;SDS011;43999;51.660;5.616;2023-06-10T00:12:37;11.32;;;10.32;;
58196;SDS011;43999;51.660;5.616;2023-06-10T00:15:05;11.68;;;10.63;;
58196;SDS011;43999;51.660;5.616;2023-06-10T00:17:34;11.80;;;10.63;;
58196;SDS011;43999;51.660;5.616;2023-06-10T00:20:07;13.55;;;12.10;;
58196;SDS011;43999;51.660;5.616;2023-06-10T00:22:38;11.18;;;10.23;;
58196;SDS011;43999;51.660;5.616;2023-06-10T00:25:08;12.80;;;11.80;;
58196;SDS011;43999;51.660;5.616;2023-06-10T00:27:37;11.50;;;10.60;;
58196;SDS011;43999;51.660;5.616;2023-06-10T00:30:05;11.73;;;10.80;;
58196;SDS011;43999;51.660;5.616;2023-06-10T00:32:34;11.57;;;10.68;;
58196;SDS011;43999;51.660;5.616;2023-06-10T00:35:03;10.90;;;9.85;;
58196;SDS011;43999;51.660;5.616;2023-06-10T00:37:33;12.02;;;10.90;;
58196;SDS011;43999;51.660;5.616;2023-06-10T00:40:04;11.90;;;10.68;;
58196;SDS011;43999;51.660;5.616;2023-06-10T00:42:35;11.35;;;10.32;;
58196;SDS011;43999;51.660;5.616;2023-06-10T00:45:04;12.60;;;11.60;;
58196;SDS011;43999;51.660;5.616;2023-06-10T00:47:35;12.65;;;11.65;;
58196;SDS011;43999;51.660;5.616;2023-06-10T00:50:03;12.35;;;11.13;;
58196;SDS011;43999;51.660;5.616;2023-06-10T00:52:32;11.52;;;10.40;;
58196;SDS011;43999;51.660;5.616;2023-06-10T00:55:01;11.52;;;10.52;;
58196;SDS011;43999;51.660;5.616;2023-06-10T00:57:30;12.07;;;10.98;;
58196;SDS011;43999;51.660;5.616;2023-06-10T00:59:58;12.13;;;11.15;;
58196;SDS011;43999;51.660;5.616;2023-06-10T01:02:27;10.75;;;9.95;;
58196;SDS011;43999;51.660;5.616;2023-06-10T01:04:57;13.25;;;12.07;;
58196;SDS011;43999;51.660;5.616;2023-06-10T01:07:28;12.15;;;11.20;;
58196;SDS011;43999;51.660;5.616;2023-06-10T01:10:28;11.75;;;10.90;;
58196;SDS011;43999;51.660;5.616;2023-06-10T01:13:13;12.80;;;11.60;;
58196;SDS011;43999;51.660;5.616;2023-06-10T01:15:44;12.70;;;11.60;;
58196;SDS011;43999;51.660;5.616;2023-06-10T01:18:12;12.90;;;11.57;;
58196;SDS011;43999;51.660;5.616;2023-06-10T01:20:42;12.10;;;11.07;;
58196;SDS011;43999;51.660;5.616;2023-06-10T01:23:12;12.75;;;11.63;;
58196;SDS011;43999;51.660;5.616;2023-06-10T01:25:53;13.18;;;11.38;;
58196;SDS011;43999;51.660;5.616;2023-06-10T01:34:18;12.48;;;11.32;;
58196;SDS011;43999;51.660;5.616;2023-06-10T01:36:49;13.32;;;12.02;;
58196;SDS011;43999;51.660;5.616;2023-06-10T01:39:20;13.40;;;12.27;;
58196;SDS011;43999;51.660;5.616;2023-06-10T01:41:52;12.43;;;11.25;;
58196;SDS011;43999;51.660;5.616;2023-06-10T01:44:21;13.32;;;12.18;;
58196;SDS011;43999;51.660;5.616;2023-06-10T01:46:50;12.98;;;11.77;;
58196;SDS011;43999;51.660;5.616;2023-06-10T01:49:17;13.32;;;11.98;;
58196;SDS011;43999;51.660;5.616;2023-06-10T01:51:45;14.02;;;12.82;;
58196;SDS011;43999;51.660;5.616;2023-06-10T01:54:12;13.18;;;12.18;;
58196;SDS011;43999;51.660;5.616;2023-06-10T01:56:40;11.98;;;10.88;;
58196;SDS011;43999;51.660;5.616;2023-06-10T01:59:07;14.13;;;12.90;;
58196;SDS011;43999;51.660;5.616;2023-06-10T02:01:35;14.70;;;13.40;;
58196;SDS011;43999;51.660;5.616;2023-06-10T02:04:02;15.15;;;13.63;;
58196;SDS011;43999;51.660;5.616;2023-06-10T02:06:31;15.25;;;13.63;;
58196;SDS011;43999;51.660;5.616;2023-06-10T02:08:58;13.27;;;12.25;;
58196;SDS011;43999;51.660;5.616;2023-06-10T02:11:28;14.32;;;12.80;;
58196;SDS011;43999;51.660;5.616;2023-06-10T02:13:56;16.50;;;14.82;;
58196;SDS011;43999;51.660;5.616;2023-06-10T02:16:24;17.17;;;15.43;;
58196;SDS011;43999;51.660;5.616;2023-06-10T02:18:51;15.43;;;14.05;;
58196;SDS011;43999;51.660;5.616;2023-06-10T02:21:19;13.95;;;12.65;;
58196;SDS011;43999;51.660;5.616;2023-06-10T02:23:46;13.65;;;12.55;;
58196;SDS011;43999;51.660;5.616;2023-06-10T02:26:14;15.15;;;13.80;;
58196;SDS011;43999;51.660;5.616;2023-06-10T02:28:42;14.98;;;13.65;;
58196;SDS011;43999;51.660;5.616;2023-06-10T02:31:11;15.30;;;14.10;;
58196;SDS011;43999;51.660;5.616;2023-06-10T02:33:40;15.88;;;14.27;;
58196;SDS011;43999;51.660;5.616;2023-06-10T02:36:08;15.20;;;13.90;;
58196;SDS011;43999;51.660;5.616;2023-06-10T02:38:41;14.73;;;13.50;;
58196;SDS011;43999;51.660;5.616;2023-06-10T02:41:09;15.63;;;14.20;;
58196;SDS011;43999;51.660;5.616;2023-06-10T02:43:37;14.65;;;13.45;;
58196;SDS011;43999;51.660;5.616;2023-06-10T02:46:06;15.30;;;13.80;;
58196;SDS011;43999;51.660;5.616;2023-06-10T02:48:40;15.25;;;13.88;;
58196;SDS011;43999;51.660;5.616;2023-06-10T02:51:20;15.45;;;14.15;;
58196;SDS011;43999;51.660;5.616;2023-06-10T02:53:51;15.93;;;14.73;;
58196;SDS011;43999;51.660;5.616;2023-06-10T02:56:18;14.30;;;13.00;;
58196;SDS011;43999;51.660;5.616;2023-06-10T02:58:46;16.40;;;14.98;;
58196;SDS011;43999;51.660;5.616;2023-06-10T03:01:16;16.58;;;15.07;;
58196;SDS011;43999;51.660;5.616;2023-06-10T03:03:59;16.15;;;14.63;;
58196;SDS011;43999;51.660;5.616;2023-06-10T03:06:27;16.25;;;14.68;;
58196;SDS011;43999;51.660;5.616;2023-06-10T03:09:04;14.68;;;13.45;;
58196;SDS011;43999;51.660;5.616;2023-06-10T03:11:31;17.00;;;15.32;;
58196;SDS011;43999;51.660;5.616;2023-06-10T03:13:59;14.00;;;12.80;;
58196;SDS011;43999;51.660;5.616;2023-06-10T03:16:29;14.82;;;13.55;;
58196;SDS011;43999;51.660;5.616;2023-06-10T03:18:58;15.07;;;13.77;;
58196;SDS011;43999;51.660;5.616;2023-06-10T03:21:26;14.55;;;13.45;;
58196;SDS011;43999;51.660;5.616;2023-06-10T03:23:56;15.55;;;14.20;;
58196;SDS011;43999;51.660;5.616;2023-06-10T03:26:23;15.73;;;14.43;;
58196;SDS011;43999;51.660;5.616;2023-06-10T03:28:50;15.00;;;13.75;;
58196;SDS011;43999;51.660;5.616;2023-06-10T03:31:19;15.05;;;13.75;;
58196;SDS011;43999;51.660;5.616;2023-06-10T03:33:46;14.45;;;13.25;;
58196;SDS011;43999;51.660;5.616;2023-06-10T03:36:15;14.85;;;13.45;;
58196;SDS011;43999;51.660;5.616;2023-06-10T03:38:42;15.13;;;13.82;;
58196;SDS011;43999;51.660;5.616;2023-06-10T03:41:09;15.90;;;14.52;;
58196;SDS011;43999;51.660;5.616;2023-06-10T03:43:40;15.20;;;13.85;;
58196;SDS011;43999;51.660;5.616;2023-06-10T03:46:07;15.02;;;13.70;;
58196;SDS011;43999;51.660;5.616;2023-06-10T03:48:37;14.35;;;13.02;;
58196;SDS011;43999;51.660;5.616;2023-06-10T03:51:05;14.48;;;13.27;;
58196;SDS011;43999;51.660;5.616;2023-06-10T03:53:33;15.43;;;14.00;;
58196;SDS011;43999;51.660;5.616;2023-06-10T03:56:00;14.30;;;12.98;;
58196;SDS011;43999;51.660;5.616;2023-06-10T03:58:29;15.43;;;14.13;;
58196;SDS011;43999;51.660;5.616;2023-06-10T04:00:57;15.35;;;13.93;;
58196;SDS011;43999;51.660;5.616;2023-06-10T04:03:32;15.57;;;14.05;;
58196;SDS011;43999;51.660;5.616;2023-06-10T04:05:59;15.05;;;13.82;;
58196;SDS011;43999;51.660;5.616;2023-06-10T04:08:27;16.23;;;14.73;;
58196;SDS011;43999;51.660;5.616;2023-06-10T04:10:55;15.90;;;13.48;;
58196;SDS011;43999;51.660;5.616;2023-06-10T04:13:25;15.68;;;14.32;;
58196;SDS011;43999;51.660;5.616;2023-06-10T04:15:57;14.63;;;13.25;;
58196;SDS011;43999;51.660;5.616;2023-06-10T04:18:24;13.57;;;12.45;;
58196;SDS011;43999;51.660;5.616;2023-06-10T04:20:55;15.10;;;13.70;;
58196;SDS011;43999;51.660;5.616;2023-06-10T04:23:24;15.32;;;13.73;;
58196;SDS011;43999;51.660;5.616;2023-06-10T04:25:52;15.65;;;14.25;;
58196;SDS011;43999;51.660;5.616;2023-06-10T04:28:20;15.80;;;14.27;;
58196;SDS011;43999;51.660;5.616;2023-06-10T04:30:48;16.33;;;14.85;;
58196;SDS011;43999;51.660;5.616;2023-06-10T04:33:15;14.85;;;13.23;;
58196;SDS011;43999;51.660;5.616;2023-06-10T04:35:44;15.25;;;13.73;;
58196;SDS011;43999;51.660;5.616;2023-06-10T04:38:14;14.65;;;13.45;;
58196;SDS011;43999;51.660;5.616;2023-06-10T04:40:42;15.35;;;13.75;;
58196;SDS011;43999;51.660;5.616;2023-06-10T04:43:12;14.65;;;13.23;;
58196;SDS011;43999;51.660;5.616;2023-06-10T04:45:40;14.85;;;13.18;;
58196;SDS011;43999;51.660;5.616;2023-06-10T04:48:11;14.00;;;12.70;;
58196;SDS011;43999;51.660;5.616;2023-06-10T04:50:39;14.80;;;13.40;;
58196;SDS011;43999;51.660;5.616;2023-06-10T04:53:07;14.50;;;13.18;;
58196;SDS011;43999;51.660;5.616;2023-06-10T04:55:36;16.20;;;12.65;;
58196;SDS011;43999;51.660;5.616;2023-06-10T04:58:04;14.20;;;12.85;;
58196;SDS011;43999;51.660;5.616;2023-06-10T05:00:31;15.10;;;13.65;;
58196;SDS011;43999;51.660;5.616;2023-06-10T05:02:59;13.85;;;12.48;;
58196;SDS011;43999;51.660;5.616;2023-06-10T05:05:26;13.20;;;11.80;;
58196;SDS011;43999;51.660;5.616;2023-06-10T05:07:54;17.15;;;12.73;;
58196;SDS011;43999;51.660;5.616;2023-06-10T05:10:21;13.68;;;10.95;;
58196;SDS011;43999;51.660;5.616;2023-06-10T05:12:48;12.95;;;11.70;;
58196;SDS011;43999;51.660;5.616;2023-06-10T05:15:16;13.27;;;11.88;;
58196;SDS011;43999;51.660;5.616;2023-06-10T05:17:43;13.02;;;11.82;;
58196;SDS011;43999;51.660;5.616;2023-06-10T05:20:11;11.48;;;10.43;;
58196;SDS011;43999;51.660;5.616;2023-06-10T05:22:40;12.57;;;11.48;;
58196;SDS011;43999;51.660;5.616;2023-06-10T05:25:07;13.23;;;11.98;;
58196;SDS011;43999;51.660;5.616;2023-06-10T05:27:36;21.70;;;13.65;;
58196;SDS011;43999;51.660;5.616;2023-06-10T05:30:04;13.10;;;11.90;;
58196;SDS011;43999;51.660;5.616;2023-06-10T05:32:33;12.68;;;11.57;;
58196;SDS011;43999;51.660;5.616;2023-06-10T05:35:01;12.77;;;11.52;;
58196;SDS011;43999;51.660;5.616;2023-06-10T05:37:30;12.32;;;11.13;;
58196;SDS011;43999;51.660;5.616;2023-06-10T05:39:57;13.05;;;10.98;;
58196;SDS011;43999;51.660;5.616;2023-06-10T05:42:24;14.05;;;11.13;;
58196;SDS011;43999;51.660;5.616;2023-06-10T05:44:51;12.43;;;11.15;;
58196;SDS011;43999;51.660;5.616;2023-06-10T05:47:19;13.02;;;11.10;;
58196;SDS011;43999;51.660;5.616;2023-06-10T05:49:46;12.90;;;10.80;;
58196;SDS011;43999;51.660;5.616;2023-06-10T05:52:16;16.95;;;11.88;;
58196;SDS011;43999;51.660;5.616;2023-06-10T05:54:44;12.23;;;10.15;;
58196;SDS011;43999;51.660;5.616;2023-06-10T05:57:12;11.55;;;10.45;;
58196;SDS011;43999;51.660;5.616;2023-06-10T05:59:39;10.35;;;9.15;;
58196;SDS011;43999;51.660;5.616;2023-06-10T06:02:07;14.90;;;11.18;;
58196;SDS011;43999;51.660;5.616;2023-06-10T06:04:36;11.20;;;10.13;;
58196;SDS011;43999;51.660;5.616;2023-06-10T06:07:03;11.30;;;10.23;;
58196;SDS011;43999;51.660;5.616;2023-06-10T06:09:32;11.98;;;10.63;;
58196;SDS011;43999;51.660;5.616;2023-06-10T06:11:59;12.88;;;10.93;;
58196;SDS011;43999;51.660;5.616;2023-06-10T06:14:26;13.13;;;10.50;;
58196;SDS011;43999;51.660;5.616;2023-06-10T06:16:58;12.48;;;11.18;;
58196;SDS011;43999;51.660;5.616;2023-06-10T06:19:25;11.73;;;8.80;;
58196;SDS011;43999;51.660;5.616;2023-06-10T06:21:53;11.05;;;9.90;;
58196;SDS011;43999;51.660;5.616;2023-06-10T06:24:20;11.32;;;10.23;;
58196;SDS011;43999;51.660;5.616;2023-06-10T06:26:48;11.02;;;9.93;;
58196;SDS011;43999;51.660;5.616;2023-06-10T06:29:15;11.05;;;9.95;;
58196;SDS011;43999;51.660;5.616;2023-06-10T06:31:43;11.50;;;10.40;;
58196;SDS011;43999;51.660;5.616;2023-06-10T06:34:10;12.45;;;9.80;;
58196;SDS011;43999;51.660;5.616;2023-06-10T06:36:41;9.38;;;8.38;;
58196;SDS011;43999;51.660;5.616;2023-06-10T06:39:09;10.43;;;9.45;;
58196;SDS011;43999;51.660;5.616;2023-06-10T06:41:36;10.70;;;9.73;;
58196;SDS011;43999;51.660;5.616;2023-06-10T06:44:04;12.13;;;9.80;;
58196;SDS011;43999;51.660;5.616;2023-06-10T06:46:36;10.77;;;9.70;;
58196;SDS011;43999;51.660;5.616;2023-06-10T06:49:03;13.85;;;12.32;;
58196;SDS011;43999;51.660;5.616;2023-06-10T06:51:30;11.23;;;8.13;;
58196;SDS011;43999;51.660;5.616;2023-06-10T06:53:58;10.20;;;9.20;;
58196;SDS011;43999;51.660;5.616;2023-06-10T06:56:25;11.02;;;9.52;;
58196;SDS011;43999;51.660;5.616;2023-06-10T06:58:54;10.05;;;8.57;;
58196;SDS011;43999;51.660;5.616;2023-06-10T07:01:23;9.85;;;8.70;;
58196;SDS011;43999;51.660;5.616;2023-06-10T07:03:51;10.05;;;8.55;;
58196;SDS011;43999;51.660;5.616;2023-06-10T07:06:18;11.02;;;7.95;;
58196;SDS011;43999;51.660;5.616;2023-06-10T07:08:46;10.48;;;9.57;;
58196;SDS011;43999;51.660;5.616;2023-06-10T07:11:13;11.15;;;8.23;;
58196;SDS011;43999;51.660;5.616;2023-06-10T07:13:41;10.90;;;8.82;;
58196;SDS011;43999;51.660;5.616;2023-06-10T07:16:09;9.65;;;8.65;;
58196;SDS011;43999;51.660;5.616;2023-06-10T07:18:37;9.93;;;8.85;;
58196;SDS011;43999;51.660;5.616;2023-06-10T07:21:04;12.07;;;8.77;;
58196;SDS011;43999;51.660;5.616;2023-06-10T07:23:33;10.60;;;9.50;;
58196;SDS011;43999;51.660;5.616;2023-06-10T07:26:00;10.38;;;9.38;;
58196;SDS011;43999;51.660;5.616;2023-06-10T07:28:28;8.50;;;7.70;;
58196;SDS011;43999;51.660;5.616;2023-06-10T07:30:55;10.10;;;8.63;;
58196;SDS011;43999;51.660;5.616;2023-06-10T07:33:23;13.45;;;9.30;;
58196;SDS011;43999;51.660;5.616;2023-06-10T07:35:50;9.70;;;8.73;;
58196;SDS011;43999;51.660;5.616;2023-06-10T07:38:19;12.07;;;8.98;;
58196;SDS011;43999;51.660;5.616;2023-06-10T07:40:47;12.77;;;7.78;;
58196;SDS011;43999;51.660;5.616;2023-06-10T07:43:14;13.95;;;10.40;;
58196;SDS011;43999;51.660;5.616;2023-06-10T07:45:42;11.13;;;8.52;;
58196;SDS011;43999;51.660;5.616;2023-06-10T07:48:10;10.23;;;9.02;;
58196;SDS011;43999;51.660;5.616;2023-06-10T07:50:38;10.60;;;9.65;;
58196;SDS011;43999;51.660;5.616;2023-06-10T07:53:05;11.73;;;8.32;;
58196;SDS011;43999;51.660;5.616;2023-06-10T07:55:32;11.00;;;8.70;;
58196;SDS011;43999;51.660;5.616;2023-06-10T07:58:00;10.88;;;9.77;;
58196;SDS011;43999;51.660;5.616;2023-06-10T08:00:27;11.35;;;8.23;;
58196;SDS011;43999;51.660;5.616;2023-06-10T08:02:55;9.65;;;8.73;;
58196;SDS011;43999;51.660;5.616;2023-06-10T08:05:22;9.70;;;8.80;;
58196;SDS011;43999;51.660;5.616;2023-06-10T08:07:49;8.77;;;7.93;;
58196;SDS011;43999;51.660;5.616;2023-06-10T08:10:17;12.07;;;7.82;;
58196;SDS011;43999;51.660;5.616;2023-06-10T08:12:44;9.70;;;8.73;;
58196;SDS011;43999;51.660;5.616;2023-06-10T08:15:12;9.48;;;8.15;;
58196;SDS011;43999;51.660;5.616;2023-06-10T08:17:39;8.90;;;7.97;;
58196;SDS011;43999;51.660;5.616;2023-06-10T08:20:07;10.25;;;8.63;;
58196;SDS011;43999;51.660;5.616;2023-06-10T08:22:35;9.20;;;8.40;;
58196;SDS011;43999;51.660;5.616;2023-06-10T08:25:02;8.57;;;7.70;;
58196;SDS011;43999;51.660;5.616;2023-06-10T08:27:30;10.65;;;9.50;;
58196;SDS011;43999;51.660;5.616;2023-06-10T08:29:57;10.68;;;8.20;;
58196;SDS011;43999;51.660;5.616;2023-06-10T08:32:27;9.10;;;7.95;;
58196;SDS011;43999;51.660;5.616;2023-06-10T08:34:54;8.73;;;7.47;;
58196;SDS011;43999;51.660;5.616;2023-06-10T08:37:23;8.63;;;7.82;;
58196;SDS011;43999;51.660;5.616;2023-06-10T08:39:51;9.13;;;8.10;;
58196;SDS011;43999;51.660;5.616;2023-06-10T08:42:27;12.35;;;9.30;;
58196;SDS011;43999;51.660;5.616;2023-06-10T08:45:19;9.88;;;7.88;;
58196;SDS011;43999;51.660;5.616;2023-06-10T08:47:50;11.75;;;8.95;;
58196;SDS011;43999;51.660;5.616;2023-06-10T08:50:21;10.80;;;8.68;;
58196;SDS011;43999;51.660;5.616;2023-06-10T08:52:50;8.65;;;7.82;;
58196;SDS011;43999;51.660;5.616;2023-06-10T08:55:26;9.40;;;8.50;;
58196;SDS011;43999;51.660;5.616;2023-06-10T09:00:28;9.45;;;8.57;;
58196;SDS011;43999;51.660;5.616;2023-06-10T09:02:58;11.02;;;8.07;;
58196;SDS011;43999;51.660;5.616;2023-06-10T09:05:33;8.55;;;7.82;;
58196;SDS011;43999;51.660;5.616;2023-06-10T09:08:03;8.73;;;7.95;;
58196;SDS011;43999;51.660;5.616;2023-06-10T09:10:35;9.90;;;8.68;;
58196;SDS011;43999;51.660;5.616;2023-06-10T09:13:03;8.65;;;7.70;;
58196;SDS011;43999;51.660;5.616;2023-06-10T09:15:30;8.57;;;7.78;;
58196;SDS011;43999;51.660;5.616;2023-06-10T09:17:58;9.07;;;8.13;;
58196;SDS011;43999;51.660;5.616;2023-06-10T09:20:27;9.32;;;7.72;;
58196;SDS011;43999;51.660;5.616;2023-06-10T09:22:54;8.00;;;7.00;;
58196;SDS011;43999;51.660;5.616;2023-06-10T09:25:28;9.82;;;8.63;;
58196;SDS011;43999;51.660;5.616;2023-06-10T09:28:04;8.45;;;7.72;;
58196;SDS011;43999;51.660;5.616;2023-06-10T09:33:14;8.57;;;7.53;;
58196;SDS011;43999;51.660;5.616;2023-06-10T09:35:46;8.88;;;8.07;;
58196;SDS011;43999;51.660;5.616;2023-06-10T09:38:20;8.23;;;7.63;;
58196;SDS011;43999;51.660;5.616;2023-06-10T09:40:49;13.45;;;8.15;;
58196;SDS011;43999;51.660;5.616;2023-06-10T09:43:21;8.50;;;7.72;;
58196;SDS011;43999;51.660;5.616;2023-06-10T09:45:49;8.38;;;7.55;;
58196;SDS011;43999;51.660;5.616;2023-06-10T09:48:21;8.52;;;7.82;;
58196;SDS011;43999;51.660;5.616;2023-06-10T09:50:52;8.98;;;7.68;;
58196;SDS011;43999;51.660;5.616;2023-06-10T09:53:20;9.35;;;8.15;;
58196;SDS011;43999;51.660;5.616;2023-06-10T09:55:49;8.68;;;7.95;;
58196;SDS011;43999;51.660;5.616;2023-06-10T09:58:21;9.25;;;8.35;;
58196;SDS011;43999;51.660;5.616;2023-06-10T10:01:10;9.52;;;8.32;;
58196;SDS011;43999;51.660;5.616;2023-06-10T10:03:49;9.40;;;8.50;;
58196;SDS011;43999;51.660;5.616;2023-06-10T10:06:18;9.15;;;8.45;;
58196;SDS011;43999;51.660;5.616;2023-06-10T10:08:48;11.18;;;8.30;;
58196;SDS011;43999;51.660;5.616;2023-06-10T10:11:18;8.93;;;8.13;;
58196;SDS011;43999;51.660;5.616;2023-06-10T10:13:50;9.68;;;8.73;;
58196;SDS011;43999;51.660;5.616;2023-06-10T10:16:21;10.07;;;9.02;;
58196;SDS011;43999;51.660;5.616;2023-06-10T10:19:07;10.07;;;7.90;;
58196;SDS011;43999;51.660;5.616;2023-06-10T10:22:10;9.05;;;8.27;;
58196;SDS011;43999;51.660;5.616;2023-06-10T10:25:28;10.73;;;7.97;;
58196;SDS011;43999;51.660;5.616;2023-06-10T10:28:06;10.15;;;9.00;;
58196;SDS011;43999;51.660;5.616;2023-06-10T10:30:47;8.68;;;7.85;;
58196;SDS011;43999;51.660;5.616;2023-06-10T10:34:04;9.65;;;8.60;;
58196;SDS011;43999;51.660;5.616;2023-06-10T10:36:29;10.65;;;8.95;;
58196;SDS011;43999;51.660;5.616;2023-06-10T10:38:57;9.48;;;8.57;;
58196;SDS011;43999;51.660;5.616;2023-06-10T10:41:28;8.85;;;7.70;;
58196;SDS011;43999;51.660;5.616;2023-06-10T10:43:59;8.70;;;7.90;;
58196;SDS011;43999;51.660;5.616;2023-06-10T10:46:28;9.95;;;8.95;;
58196;SDS011;43999;51.660;5.616;2023-06-10T10:48:57;9.45;;;8.57;;
58196;SDS011;43999;51.660;5.616;2023-06-10T10:51:27;8.52;;;7.78;;
58196;SDS011;43999;51.660;5.616;2023-06-10T10:54:11;9.10;;;8.30;;
58196;SDS011;43999;51.660;5.616;2023-06-10T10:57:09;9.00;;;8.20;;
58196;SDS011;43999;51.660;5.616;2023-06-10T10:59:43;9.95;;;8.95;;
58196;SDS011;43999;51.660;5.616;2023-06-10T11:02:15;8.75;;;7.93;;
58196;SDS011;43999;51.660;5.616;2023-06-10T11:04:59;9.40;;;8.50;;
58196;SDS011;43999;51.660;5.616;2023-06-10T11:07:30;8.85;;;7.80;;
58196;SDS011;43999;51.660;5.616;2023-06-10T11:10:08;9.23;;;7.72;;
58196;SDS011;43999;51.660;5.616;2023-06-10T11:13:02;8.93;;;8.10;;
58196;SDS011;43999;51.660;5.616;2023-06-10T11:15:56;8.75;;;8.02;;
58196;SDS011;43999;51.660;5.616;2023-06-10T11:21:01;10.02;;;8.23;;
58196;SDS011;43999;51.660;5.616;2023-06-10T11:23:33;8.23;;;7.43;;
58196;SDS011;43999;51.660;5.616;2023-06-10T11:31:39;7.95;;;7.25;;
58196;SDS011;43999;51.660;5.616;2023-06-10T11:34:21;8.32;;;7.55;;
58196;SDS011;43999;51.660;5.616;2023-06-10T11:36:51;11.18;;;7.90;;
58196;SDS011;43999;51.660;5.616;2023-06-10T11:39:20;8.88;;;8.07;;
58196;SDS011;43999;51.660;5.616;2023-06-10T11:41:50;12.88;;;7.90;;
58196;SDS011;43999;51.660;5.616;2023-06-10T11:44:19;9.65;;;8.40;;
58196;SDS011;43999;51.660;5.616;2023-06-10T11:46:48;8.23;;;7.28;;
58196;SDS011;43999;51.660;5.616;2023-06-10T11:49:16;8.32;;;7.45;;
58196;SDS011;43999;51.660;5.616;2023-06-10T11:51:44;8.15;;;7.38;;
58196;SDS011;43999;51.660;5.616;2023-06-10T11:54:16;9.65;;;8.27;;
58196;SDS011;43999;51.660;5.616;2023-06-10T11:56:45;9.27;;;8.52;;
58196;SDS011;43999;51.660;5.616;2023-06-10T11:59:14;10.38;;;8.00;;
58196;SDS011;43999;51.660;5.616;2023-06-10T12:01:42;15.40;;;8.13;;
58196;SDS011;43999;51.660;5.616;2023-06-10T12:04:14;9.05;;;7.28;;
58196;SDS011;43999;51.660;5.616;2023-06-10T12:06:49;8.90;;;8.00;;
58196;SDS011;43999;51.660;5.616;2023-06-10T12:12:03;10.45;;;7.70;;
58196;SDS011;43999;51.660;5.616;2023-06-10T12:20:01;8.13;;;7.45;;
58196;SDS011;43999;51.660;5.616;2023-06-10T12:22:39;9.55;;;8.65;;
58196;SDS011;43999;51.660;5.616;2023-06-10T12:25:10;8.50;;;7.70;;
58196;SDS011;43999;51.660;5.616;2023-06-10T12:27:40;8.35;;;7.60;;
58196;SDS011;43999;51.660;5.616;2023-06-10T12:30:19;9.07;;;8.18;;
58196;SDS011;43999;51.660;5.616;2023-06-10T12:32:53;8.50;;;7.80;;
58196;SDS011;43999;51.660;5.616;2023-06-10T12:35:26;7.60;;;6.90;;
58196;SDS011;43999;51.660;5.616;2023-06-10T12:37:58;8.23;;;7.45;;
58196;SDS011;43999;51.660;5.616;2023-06-10T12:40:32;7.80;;;7.20;;
58196;SDS011;43999;51.660;5.616;2023-06-10T12:43:04;9.85;;;8.48;;
58196;SDS011;43999;51.660;5.616;2023-06-10T12:45:38;8.48;;;7.72;;
58196;SDS011;43999;51.660;5.616;2023-06-10T12:48:11;9.48;;;7.05;;
58196;SDS011;43999;51.660;5.616;2023-06-10T12:50:49;9.60;;;7.95;;
58196;SDS011;43999;51.660;5.616;2023-06-10T12:53:23;8.20;;;7.43;;
58196;SDS011;43999;51.660;5.616;2023-06-10T12:55:55;9.40;;;7.93;;
58196;SDS011;43999;51.660;5.616;2023-06-10T12:58:24;8.68;;;7.80;;
58196;SDS011;43999;51.660;5.616;2023-06-10T13:00:53;8.32;;;7.43;;
58196;SDS011;43999;51.660;5.616;2023-06-10T13:03:20;8.10;;;7.10;;
58196;SDS011;43999;51.660;5.616;2023-06-10T13:05:48;8.27;;;7.53;;
58196;SDS011;43999;51.660;5.616;2023-06-10T13:08:15;7.82;;;7.13;;
58196;SDS011;43999;51.660;5.616;2023-06-10T13:10:43;9.85;;;7.97;;
58196;SDS011;43999;51.660;5.616;2023-06-10T13:13:15;8.05;;;7.25;;
58196;SDS011;43999;51.660;5.616;2023-06-10T13:15:42;9.15;;;7.43;;
58196;SDS011;43999;51.660;5.616;2023-06-10T13:18:10;9.70;;;8.77;;
58196;SDS011;43999;51.660;5.616;2023-06-10T13:20:38;9.30;;;8.40;;
58196;SDS011;43999;51.660;5.616;2023-06-10T13:23:07;8.02;;;7.18;;
58196;SDS011;43999;51.660;5.616;2023-06-10T13:25:35;7.82;;;7.13;;
58196;SDS011;43999;51.660;5.616;2023-06-10T13:28:03;7.28;;;6.60;;
58196;SDS011;43999;51.660;5.616;2023-06-10T13:30:30;7.88;;;7.18;;
58196;SDS011;43999;51.660;5.616;2023-06-10T13:32:58;9.18;;;7.72;;
58196;SDS011;43999;51.660;5.616;2023-06-10T13:35:25;7.88;;;7.18;;
58196;SDS011;43999;51.660;5.616;2023-06-10T13:37:53;9.10;;;7.63;;
58196;SDS011;43999;51.660;5.616;2023-06-10T13:40:20;7.63;;;7.00;;
58196;SDS011;43999;51.660;5.616;2023-06-10T13:42:48;9.00;;;8.07;;
58196;SDS011;43999;51.660;5.616;2023-06-10T13:45:19;7.85;;;7.22;;
58196;SDS011;43999;51.660;5.616;2023-06-10T13:47:46;7.63;;;6.93;;
58196;SDS011;43999;51.660;5.616;2023-06-10T13:50:15;7.70;;;7.00;;
58196;SDS011;43999;51.660;5.616;2023-06-10T13:52:46;8.13;;;7.35;;
58196;SDS011;43999;51.660;5.616;2023-06-10T13:55:14;8.40;;;7.60;;
58196;SDS011;43999;51.660;5.616;2023-06-10T13:57:42;7.68;;;6.97;;
58196;SDS011;43999;51.660;5.616;2023-06-10T14:00:11;7.38;;;6.68;;
58196;SDS011;43999;51.660;5.616;2023-06-10T14:02:40;7.72;;;6.97;;
58196;SDS011;43999;51.660;5.616;2023-06-10T14:05:08;8.25;;;7.53;;
58196;SDS011;43999;51.660;5.616;2023-06-10T14:07:36;7.85;;;7.25;;
58196;SDS011;43999;51.660;5.616;2023-06-10T14:10:04;8.10;;;7.40;;
58196;SDS011;43999;51.660;5.616;2023-06-10T14:12:32;7.20;;;6.60;;
58196;SDS011;43999;51.660;5.616;2023-06-10T14:14:59;8.07;;;7.38;;
58196;SDS011;43999;51.660;5.616;2023-06-10T14:17:27;7.50;;;6.82;;
58196;SDS011;43999;51.660;5.616;2023-06-10T14:19:55;6.53;;;6.00;;
58196;SDS011;43999;51.660;5.616;2023-06-10T14:22:22;7.90;;;7.38;;
58196;SDS011;43999;51.660;5.616;2023-06-10T14:24:50;7.97;;;7.28;;
58196;SDS011;43999;51.660;5.616;2023-06-10T14:27:17;10.48;;;9.40;;
58196;SDS011;43999;51.660;5.616;2023-06-10T14:29:45;7.53;;;6.93;;
58196;SDS011;43999;51.660;5.616;2023-06-10T14:32:13;8.00;;;7.32;;
58196;SDS011;43999;51.660;5.616;2023-06-10T14:34:42;8.90;;;7.97;;
58196;SDS011;43999;51.660;5.616;2023-06-10T14:37:11;8.65;;;7.82;;
58196;SDS011;43999;51.660;5.616;2023-06-10T14:39:38;8.38;;;7.68;;
58196;SDS011;43999;51.660;5.616;2023-06-10T14:42:05;8.63;;;7.82;;
58196;SDS011;43999;51.660;5.616;2023-06-10T14:44:33;8.93;;;7.50;;
58196;SDS011;43999;51.660;5.616;2023-06-10T14:47:01;7.85;;;7.00;;
58196;SDS011;43999;51.660;5.616;2023-06-10T14:49:29;8.07;;;7.28;;
58196;SDS011;43999;51.660;5.616;2023-06-10T14:51:56;8.30;;;7.70;;
58196;SDS011;43999;51.660;5.616;2023-06-10T14:54:25;8.30;;;7.53;;
58196;SDS011;43999;51.660;5.616;2023-06-10T14:56:52;8.43;;;7.78;;
58196;SDS011;43999;51.660;5.616;2023-06-10T14:59:19;8.70;;;7.78;;
58196;SDS011;43999;51.660;5.616;2023-06-10T15:01:47;8.20;;;7.50;;
58196;SDS011;43999;51.660;5.616;2023-06-10T15:04:14;7.72;;;6.97;;
58196;SDS011;43999;51.660;5.616;2023-06-10T15:06:42;7.47;;;6.75;;
58196;SDS011;43999;51.660;5.616;2023-06-10T15:09:09;8.90;;;7.63;;
58196;SDS011;43999;51.660;5.616;2023-06-10T15:11:37;8.02;;;7.15;;
58196;SDS011;43999;51.660;5.616;2023-06-10T15:14:04;8.40;;;7.68;;
58196;SDS011;43999;51.660;5.616;2023-06-10T15:16:32;7.78;;;7.05;;